Time;durP1;ratioP1;P1;durP2;ratioP2;P2;SDS_P1;SDS_P2;PMS_P1;PMS_P2;Temp;Humidity;BMP_temperature;BMP_pressure;BME280_temperature;BME280_humidity;BME280_pressure;Samples;Min_cycle;Max_cycle;Signal;HPM_P1;HPM_P2
2023/02/25 00:00:16;;;;;;;22.52;4.70;;;5.00;73.10;;;;;;5052036;28;20385;-75
2023/02/25 00:02:43;;;;;;;18.73;4.57;;;5.10;74.30;;;;;;5051407;28;20388;-75
2023/02/25 00:05:08;;;;;;;25.15;4.55;;;5.00;73.90;;;;;;5051359;28;20381;-76
2023/02/25 00:07:34;;;;;;;29.17;4.43;;;5.00;74.70;;;;;;5051491;28;20386;-75
2023/02/25 00:10:00;;;;;;;16.02;4.90;;;5.00;75.10;;;;;;5038342;28;20389;-76
2023/02/25 00:12:28;;;;;;;22.77;3.78;;;5.10;75.80;;;;;;5034489;28;20482;-75
2023/02/25 00:14:54;;;;;;;15.93;4.88;;;5.00;74.70;;;;;;5041865;28;20391;-77
2023/02/25 00:17:20;;;;;;;26.40;4.80;;;5.00;75.30;;;;;;5031525;28;21390;-76
2023/02/25 00:19:45;;;;;;;27.50;4.57;;;5.00;75.20;;;;;;5039568;28;20789;-76
2023/02/25 00:22:11;;;;;;;26.90;6.40;;;5.00;76.20;;;;;;5034843;28;20892;-76
2023/02/25 00:24:36;;;;;;;21.63;5.90;;;5.10;76.50;;;;;;5043979;22;20453;-74
2023/02/25 00:27:03;;;;;;;23.80;4.90;;;5.10;76.00;;;;;;5028686;28;20387;-71
2023/02/25 00:29:28;;;;;;;17.83;3.97;;;5.10;75.10;;;;;;5029935;28;20402;-73
2023/02/25 00:31:54;;;;;;;20.92;5.15;;;5.00;75.60;;;;;;5031903;28;20434;-73
2023/02/25 00:34:19;;;;;;;29.13;4.50;;;5.00;74.80;;;;;;5029207;28;20421;-72
2023/02/25 00:36:45;;;;;;;19.35;4.75;;;5.00;75.30;;;;;;5022074;28;20495;-71
2023/02/25 00:39:10;;;;;;;22.73;4.77;;;5.00;75.20;;;;;;5009210;28;20389;-75
2023/02/25 00:41:36;;;;;;;21.10;4.30;;;4.90;75.00;;;;;;5015507;28;20410;-73
2023/02/25 00:44:02;;;;;;;20.47;3.33;;;4.90;75.50;;;;;;5028900;28;20387;-74
2023/02/25 00:46:30;;;;;;;16.88;3.97;;;4.90;75.70;;;;;;5029467;28;20389;-74
2023/02/25 00:48:56;;;;;;;20.92;4.68;;;4.90;75.80;;;;;;5030060;28;20856;-74
2023/02/25 00:51:24;;;;;;;18.23;4.50;;;4.90;76.20;;;;;;5029896;28;20474;-74
2023/02/25 00:53:51;;;;;;;14.23;4.28;;;5.00;74.60;;;;;;5030701;28;20384;-74
2023/02/25 00:56:18;;;;;;;11.77;3.50;;;4.90;74.00;;;;;;5025762;28;20434;-74
2023/02/25 00:58:45;;;;;;;16.25;3.90;;;4.90;74.10;;;;;;5016809;28;20413;-74
2023/02/25 01:01:32;;;;;;;16.52;3.30;;;4.90;74.00;;;;;;5019394;28;20388;-74
2023/02/25 01:03:58;;;;;;;13.18;3.08;;;4.90;73.70;;;;;;4996501;28;20396;-73
2023/02/25 01:06:26;;;;;;;19.58;4.80;;;4.80;73.40;;;;;;5014358;28;20389;-74
2023/02/25 01:08:52;;;;;;;12.82;3.10;;;4.80;75.70;;;;;;5012639;28;20396;-73
2023/02/25 01:11:27;;;;;;;16.63;3.40;;;4.80;73.00;;;;;;4998849;28;20408;-74
2023/02/25 01:14:04;;;;;;;19.65;3.28;;;4.80;74.30;;;;;;5019490;28;20447;-74
2023/02/25 01:16:32;;;;;;;16.53;4.37;;;4.90;73.20;;;;;;5020075;28;20858;-74
2023/02/25 01:19:00;;;;;;;18.15;3.10;;;4.80;72.80;;;;;;5016128;28;20393;-73
2023/02/25 01:21:29;;;;;;;16.27;3.40;;;4.80;73.50;;;;;;5013328;28;20484;-73
2023/02/25 01:24:01;;;;;;;15.82;3.30;;;4.80;73.20;;;;;;5013597;28;20393;-73
2023/02/25 01:26:29;;;;;;;9.82;2.30;;;4.80;74.00;;;;;;5013911;28;20761;-73
2023/02/25 01:28:55;;;;;;;27.30;4.13;;;4.70;73.40;;;;;;5014899;28;20411;-73
2023/02/25 01:31:28;;;;;;;12.77;3.72;;;4.70;74.20;;;;;;5019159;28;20420;-76
2023/02/25 01:33:56;;;;;;;12.82;3.00;;;4.80;74.40;;;;;;5027523;28;20385;-73
2023/02/25 01:36:23;;;;;;;20.42;3.35;;;4.70;73.00;;;;;;5028213;28;20400;-71
2023/02/25 01:38:48;;;;;;;15.80;3.80;;;4.70;74.50;;;;;;5029255;28;20393;-73
2023/02/25 01:41:14;;;;;;;10.40;2.13;;;4.70;74.00;;;;;;5016435;28;20955;-74
2023/02/25 01:43:40;;;;;;;17.63;3.00;;;4.70;72.90;;;;;;5013482;28;20392;-73
2023/02/25 01:46:06;;;;;;;14.57;3.10;;;4.70;74.30;;;;;;5012943;28;20393;-74
2023/02/25 01:48:35;;;;;;;24.13;3.77;;;4.70;76.10;;;;;;4995301;28;20481;-74
2023/02/25 01:51:05;;;;;;;15.20;3.00;;;4.60;77.70;;;;;;5012978;28;20418;-74
2023/02/25 01:53:39;;;;;;;20.33;3.83;;;4.60;77.50;;;;;;5015555;28;20393;-74
2023/02/25 01:56:06;;;;;;;21.88;3.90;;;4.60;79.00;;;;;;5013154;28;20979;-74
2023/02/25 01:58:33;;;;;;;14.18;2.88;;;4.60;78.60;;;;;;5013520;28;20862;-74
2023/02/25 02:00:59;;;;;;;18.33;2.90;;;4.60;75.90;;;;;;5014929;28;20475;-74
2023/02/25 02:03:33;;;;;;;18.47;3.43;;;4.70;75.00;;;;;;5016232;28;20516;-74
2023/02/25 02:06:20;;;;;;;17.95;4.18;;;4.60;75.00;;;;;;5015135;28;20384;-74
2023/02/25 02:08:47;;;;;;;19.95;4.32;;;4.70;76.60;;;;;;5014692;28;20377;-72
2023/02/25 02:11:12;;;;;;;22.83;5.40;;;4.80;75.80;;;;;;5013635;28;20400;-73
2023/02/25 02:13:42;;;;;;;11.32;3.33;;;4.80;74.50;;;;;;5015299;28;20464;-73
2023/02/25 02:16:25;;;;;;;16.73;3.10;;;4.80;72.00;;;;;;5020556;28;20415;-73
2023/02/25 02:18:57;;;;;;;18.75;3.60;;;4.80;72.10;;;;;;5022681;28;20396;-73
2023/02/25 02:21:31;;;;;;;16.15;3.20;;;4.70;73.00;;;;;;5017905;28;20450;-73
2023/02/25 02:24:35;;;;;;;27.13;4.00;;;4.60;72.60;;;;;;5012931;28;20468;-74
2023/02/25 02:27:06;;;;;;;18.40;4.10;;;4.60;73.80;;;;;;5012991;28;20388;-74
2023/02/25 02:30:00;;;;;;;18.63;2.90;;;4.50;73.90;;;;;;5014899;28;20464;-72
2023/02/25 02:32:34;;;;;;;18.48;3.50;;;4.50;73.50;;;;;;5016183;28;20782;-73
2023/02/25 02:35:22;;;;;;;21.05;3.60;;;4.50;74.40;;;;;;5013695;28;20428;-73
2023/02/25 02:38:11;;;;;;;18.17;3.10;;;4.50;75.20;;;;;;4994901;28;20711;-74
2023/02/25 02:40:43;;;;;;;13.10;2.97;;;4.50;74.60;;;;;;4994693;28;20389;-73
2023/02/25 02:43:31;;;;;;;16.88;3.20;;;4.50;74.80;;;;;;5011992;28;20409;-73
2023/02/25 02:46:16;;;;;;;27.02;5.18;;;4.50;74.70;;;;;;5012288;28;20395;-73
2023/02/25 02:49:03;;;;;;;17.25;3.50;;;4.50;77.00;;;;;;4994863;28;20393;-72
2023/02/25 02:51:58;;;;;;;30.67;4.95;;;4.60;73.90;;;;;;5011968;28;20408;-73
2023/02/25 02:54:29;;;;;;;23.65;5.10;;;4.70;74.30;;;;;;5007901;28;20401;-73
2023/02/25 02:56:57;;;;;;;26.67;5.95;;;4.70;74.90;;;;;;5011993;28;20383;-74
2023/02/25 02:59:26;;;;;;;18.00;4.18;;;4.70;75.10;;;;;;5012109;28;20384;-73
2023/02/25 03:02:02;;;;;;;15.13;3.90;;;4.80;71.70;;;;;;5015127;28;20789;-74
2023/02/25 03:04:31;;;;;;;14.82;3.40;;;4.80;71.80;;;;;;4994550;28;20385;-73
2023/02/25 03:07:01;;;;;;;13.13;3.85;;;4.70;72.00;;;;;;5014365;28;20415;-73
2023/02/25 03:09:39;;;;;;;18.55;3.90;;;4.70;71.80;;;;;;5020045;28;20385;-73
2023/02/25 03:12:05;;;;;;;25.13;5.10;;;4.60;73.00;;;;;;5017072;28;20405;-73
2023/02/25 03:14:31;;;;;;;19.38;4.38;;;4.60;74.10;;;;;;5013827;28;20442;-73
2023/02/25 03:17:03;;;;;;;22.15;3.63;;;4.60;73.90;;;;;;5010998;28;20384;-73
2023/02/25 03:19:55;;;;;;;19.65;4.38;;;4.70;74.30;;;;;;5011759;28;20372;-73
2023/02/25 03:22:26;;;;;;;20.98;3.67;;;4.70;73.00;;;;;;4984483;28;20385;-74
2023/02/25 03:24:59;;;;;;;20.88;4.18;;;4.70;72.80;;;;;;5021329;28;20464;-74
2023/02/25 03:27:33;;;;;;;23.88;3.95;;;4.70;72.30;;;;;;5021976;28;20504;-73
2023/02/25 03:30:25;;;;;;;22.00;3.80;;;4.70;73.10;;;;;;5021016;28;20490;-74
2023/02/25 03:33:30;;;;;;;23.00;4.15;;;4.60;73.10;;;;;;5020237;28;20422;-73
2023/02/25 03:35:57;;;;;;;20.20;4.05;;;4.70;73.40;;;;;;5021118;28;20419;-73
2023/02/25 03:38:27;;;;;;;25.35;4.28;;;4.70;72.30;;;;;;5003791;28;20439;-74
2023/02/25 03:40:56;;;;;;;16.40;3.60;;;4.70;72.60;;;;;;5021729;28;20428;-73
2023/02/25 03:43:26;;;;;;;18.02;4.10;;;4.80;71.70;;;;;;5027420;28;20372;-73
2023/02/25 03:45:55;;;;;;;21.15;4.80;;;4.80;71.90;;;;;;5022031;28;20396;-72
2023/02/25 03:48:22;;;;;;;15.90;4.00;;;4.80;72.20;;;;;;5019702;28;20396;-73
2023/02/25 03:50:58;;;;;;;12.55;3.33;;;4.70;71.30;;;;;;5015475;28;20385;-72
2023/02/25 03:53:24;;;;;;;22.52;4.57;;;4.70;71.60;;;;;;5013473;28;20448;-73
2023/02/25 03:55:50;;;;;;;16.13;3.57;;;4.60;71.90;;;;;;5012540;28;20447;-74
2023/02/25 03:58:15;;;;;;;20.15;4.00;;;4.70;72.60;;;;;;5013666;28;20381;-74
2023/02/25 04:00:44;;;;;;;22.50;4.13;;;4.70;73.20;;;;;;5010948;28;21008;-72
2023/02/25 04:03:11;;;;;;;18.60;3.47;;;4.70;73.60;;;;;;5010572;28;20797;-72
2023/02/25 04:05:37;;;;;;;15.23;3.28;;;4.80;71.80;;;;;;5011040;28;20550;-74
2023/02/25 04:08:14;;;;;;;13.13;2.80;;;4.70;70.80;;;;;;5012680;28;20389;-74
2023/02/25 04:10:44;;;;;;;10.55;3.17;;;4.70;71.70;;;;;;4998086;28;20471;-73
2023/02/25 04:13:11;;;;;;;14.55;2.50;;;4.70;71.40;;;;;;5012521;28;20411;-73
2023/02/25 04:15:36;;;;;;;16.70;3.25;;;4.70;72.30;;;;;;5013279;28;20479;-74
2023/02/25 04:18:02;;;;;;;20.33;3.73;;;4.70;71.80;;;;;;5013075;28;20506;-73
2023/02/25 04:20:29;;;;;;;17.20;3.00;;;4.70;72.60;;;;;;5011920;28;20389;-73
2023/02/25 04:22:55;;;;;;;7.47;2.00;;;4.70;72.20;;;;;;5010940;28;20432;-72
2023/02/25 04:25:20;;;;;;;13.98;3.00;;;4.70;71.60;;;;;;5023251;28;20393;-73
2023/02/25 04:27:46;;;;;;;15.90;3.60;;;4.70;72.10;;;;;;5032462;28;20408;-74
2023/02/25 04:30:12;;;;;;;15.57;2.83;;;4.70;72.20;;;;;;5033575;28;20391;-73
2023/02/25 04:32:37;;;;;;;11.07;2.67;;;4.70;71.80;;;;;;5004887;28;20439;-71
2023/02/25 04:35:03;;;;;;;16.83;2.70;;;4.70;71.80;;;;;;4993574;28;20932;-73
2023/02/25 04:37:30;;;;;;;18.63;3.95;;;4.70;71.80;;;;;;5013584;28;20885;-74
2023/02/25 04:39:55;;;;;;;21.00;3.40;;;4.70;73.20;;;;;;5016224;28;20425;-74
2023/02/25 04:42:21;;;;;;;21.95;4.13;;;4.80;72.60;;;;;;5017455;28;20397;-73
2023/02/25 04:44:46;;;;;;;23.70;3.97;;;4.80;72.80;;;;;;5012368;28;20393;-74
2023/02/25 04:47:12;;;;;;;22.47;5.00;;;4.80;70.70;;;;;;5012203;28;20388;-74
2023/02/25 04:49:43;;;;;;;16.63;3.40;;;4.80;71.20;;;;;;5012410;28;20400;-74
2023/02/25 04:52:10;;;;;;;30.95;5.18;;;4.90;71.30;;;;;;5010651;28;20806;-74
2023/02/25 04:54:36;;;;;;;23.37;6.33;;;4.80;71.70;;;;;;4999086;28;20524;-74
2023/02/25 04:57:01;;;;;;;23.65;5.18;;;4.90;72.70;;;;;;5013750;28;20518;-74
2023/02/25 04:59:27;;;;;;;27.67;6.38;;;5.00;71.80;;;;;;5013573;28;20453;-75
2023/02/25 05:01:52;;;;;;;23.50;4.70;;;5.00;70.70;;;;;;5031812;28;20398;-74
2023/02/25 05:04:18;;;;;;;13.23;2.83;;;5.00;68.70;;;;;;5031184;28;20390;-74
2023/02/25 05:06:43;;;;;;;18.50;3.53;;;4.90;68.10;;;;;;5031531;28;20827;-73
2023/02/25 05:09:09;;;;;;;12.57;2.20;;;4.90;70.10;;;;;;5022430;28;20404;-74
2023/02/25 05:11:34;;;;;;;16.77;3.80;;;4.80;70.10;;;;;;5017070;28;20418;-76
2023/02/25 05:14:00;;;;;;;22.70;4.40;;;4.80;71.30;;;;;;5029779;28;20919;-74
2023/02/25 05:16:26;;;;;;;24.70;4.40;;;4.80;72.30;;;;;;5020018;28;20896;-74
2023/02/25 05:18:52;;;;;;;21.83;3.58;;;4.80;72.20;;;;;;5036213;28;20399;-72
2023/02/25 05:21:23;;;;;;;18.37;3.70;;;4.80;71.90;;;;;;5047491;28;20399;-75
2023/02/25 05:23:50;;;;;;;16.83;4.07;;;4.80;72.30;;;;;;5032047;28;20424;-75
2023/02/25 05:26:20;;;;;;;18.70;3.77;;;4.90;72.30;;;;;;5018514;28;20777;-74
2023/02/25 05:28:52;;;;;;;21.17;5.87;;;4.80;72.00;;;;;;5013801;28;20565;-76
2023/02/25 05:31:18;;;;;;;21.75;6.75;;;4.90;73.60;;;;;;5011960;28;20408;-74
2023/02/25 05:33:44;;;;;;;18.52;6.85;;;5.00;72.20;;;;;;5010995;28;20408;-74
2023/02/25 05:36:13;;;;;;;24.77;6.82;;;4.90;72.90;;;;;;5011869;28;20685;-73
2023/02/25 05:38:39;;;;;;;23.27;4.83;;;5.00;72.30;;;;;;5012679;28;20459;-73
2023/02/25 05:41:05;;;;;;;24.97;5.97;;;5.00;70.50;;;;;;5030195;28;20412;-74
2023/02/25 05:43:31;;;;;;;21.55;4.13;;;5.00;71.60;;;;;;5031350;28;20419;-75
2023/02/25 05:45:59;;;;;;;18.23;3.75;;;5.00;70.80;;;;;;5033107;28;20387;-73
2023/02/25 05:48:24;;;;;;;15.68;3.72;;;4.90;71.70;;;;;;5019336;28;20386;-74
2023/02/25 05:50:50;;;;;;;16.88;4.47;;;4.90;71.10;;;;;;5028266;28;20809;-73
2023/02/25 05:53:17;;;;;;;20.73;4.40;;;4.90;72.50;;;;;;5021088;28;20388;-74
2023/02/25 05:55:44;;;;;;;19.70;3.78;;;4.90;72.80;;;;;;5018737;28;20406;-74
2023/02/25 05:58:10;;;;;;;34.92;3.90;;;4.90;71.80;;;;;;5010736;28;20827;-74
2023/02/25 06:00:37;;;;;;;21.38;3.60;;;4.80;71.80;;;;;;5011428;28;20878;-73
2023/02/25 06:03:03;;;;;;;14.88;2.50;;;4.80;71.80;;;;;;4993558;28;20400;-74
2023/02/25 06:05:29;;;;;;;11.52;2.40;;;4.80;71.40;;;;;;4997218;28;20407;-74
2023/02/25 06:07:58;;;;;;;16.47;3.60;;;4.70;71.70;;;;;;5030814;28;20931;-74
2023/02/25 06:10:25;;;;;;;18.20;3.53;;;4.70;72.20;;;;;;5027785;28;20403;-74
2023/02/25 06:12:51;;;;;;;28.67;4.07;;;4.80;73.10;;;;;;4993816;28;20413;-74
2023/02/25 06:15:17;;;;;;;28.17;4.40;;;4.80;73.20;;;;;;5011051;28;20385;-74
2023/02/25 06:17:43;;;;;;;13.40;2.95;;;4.80;72.60;;;;;;5012108;28;20392;-74
2023/02/25 06:20:09;;;;;;;22.93;4.23;;;4.70;71.20;;;;;;5013014;28;20381;-74
2023/02/25 06:22:35;;;;;;;14.50;2.80;;;4.70;72.50;;;;;;5012796;28;20380;-73
2023/02/25 06:25:01;;;;;;;20.13;3.50;;;4.80;71.40;;;;;;5024051;28;20415;-74
2023/02/25 06:27:26;;;;;;;21.50;4.10;;;4.70;71.50;;;;;;5012097;28;20428;-74
2023/02/25 06:29:52;;;;;;;22.07;3.93;;;4.70;72.00;;;;;;5012059;28;20397;-74
2023/02/25 06:32:18;;;;;;;17.90;4.22;;;4.70;73.00;;;;;;5011897;28;20408;-74
2023/02/25 06:34:44;;;;;;;16.60;3.08;;;4.70;71.80;;;;;;5011983;28;20762;-75
2023/02/25 06:37:09;;;;;;;22.35;3.28;;;4.80;70.80;;;;;;5012427;28;20412;-74
2023/02/25 06:39:35;;;;;;;20.98;4.35;;;4.70;71.00;;;;;;5014021;28;20377;-73
2023/02/25 06:42:01;;;;;;;17.92;3.22;;;4.80;70.50;;;;;;5032046;28;20403;-74
2023/02/25 06:44:28;;;;;;;10.80;2.80;;;4.80;70.30;;;;;;5016562;28;20397;-73
2023/02/25 06:46:56;;;;;;;21.58;2.78;;;4.80;69.40;;;;;;5011800;28;20396;-72
2023/02/25 06:49:23;;;;;;;19.80;3.85;;;4.80;68.20;;;;;;5011797;28;20400;-74
2023/02/25 06:51:49;;;;;;;14.75;3.20;;;4.80;68.50;;;;;;5011296;28;20952;-73
2023/02/25 06:54:15;;;;;;;19.77;4.07;;;4.90;67.90;;;;;;4994072;28;20388;-71
2023/02/25 06:56:41;;;;;;;20.08;3.50;;;4.90;68.30;;;;;;5025335;28;20409;-74
2023/02/25 06:59:07;;;;;;;10.48;2.30;;;4.90;67.90;;;;;;5031300;28;20378;-74
2023/02/25 07:01:33;;;;;;;19.07;2.77;;;4.90;66.30;;;;;;5032339;28;20393;-74
2023/02/25 07:03:58;;;;;;;13.05;2.90;;;4.80;67.10;;;;;;5032103;28;20387;-74
2023/02/25 07:06:24;;;;;;;19.75;3.28;;;4.90;67.50;;;;;;5027477;28;20408;-73
2023/02/25 07:08:49;;;;;;;17.17;3.80;;;4.90;66.90;;;;;;5023458;28;20403;-74
2023/02/25 07:11:18;;;;;;;20.73;3.87;;;4.90;68.60;;;;;;5027498;28;20449;-75
2023/02/25 07:13:46;;;;;;;16.73;3.00;;;5.00;66.60;;;;;;5031567;28;20487;-74
2023/02/25 07:16:13;;;;;;;13.13;2.97;;;5.00;66.40;;;;;;5032614;28;20471;-75
2023/02/25 07:18:40;;;;;;;15.15;3.35;;;5.00;66.70;;;;;;5032583;28;20769;-72
2023/02/25 07:21:06;;;;;;;13.73;2.83;;;5.00;67.10;;;;;;5015888;28;20758;-75
2023/02/25 07:23:31;;;;;;;15.47;2.57;;;5.00;66.90;;;;;;5029284;28;20880;-74
2023/02/25 07:26:01;;;;;;;15.48;3.50;;;5.00;67.80;;;;;;5019484;28;20416;-72
2023/02/25 07:28:27;;;;;;;19.48;3.08;;;5.10;67.20;;;;;;5008747;28;21000;-71
2023/02/25 07:30:52;;;;;;;17.97;3.60;;;5.00;66.70;;;;;;5009417;28;20471;-74
2023/02/25 07:33:18;;;;;;;20.80;4.30;;;5.00;66.40;;;;;;5009736;28;20448;-72
2023/02/25 07:35:44;;;;;;;21.50;3.90;;;5.00;67.00;;;;;;5012786;28;20471;-74
2023/02/25 07:38:11;;;;;;;20.42;3.97;;;5.00;66.70;;;;;;5001894;28;20402;-74
2023/02/25 07:40:38;;;;;;;10.93;2.60;;;4.90;67.30;;;;;;4993451;28;20383;-74
2023/02/25 07:43:04;;;;;;;22.03;2.70;;;5.00;66.00;;;;;;5003186;28;20734;-73
2023/02/25 07:45:29;;;;;;;13.93;3.50;;;5.00;65.30;;;;;;5010370;28;20407;-73
2023/02/25 07:47:55;;;;;;;20.95;4.60;;;5.10;63.80;;;;;;5009378;28;20459;-72
2023/02/25 07:50:20;;;;;;;27.25;4.60;;;5.30;64.60;;;;;;5008820;28;20809;-72
2023/02/25 07:52:47;;;;;;;33.03;5.07;;;5.30;66.90;;;;;;5023250;28;20915;-73
2023/02/25 07:55:13;;;;;;;19.83;3.63;;;5.30;68.30;;;;;;5028663;28;20387;-72
2023/02/25 07:57:38;;;;;;;21.87;2.90;;;5.30;64.50;;;;;;5029477;28;20889;-73
2023/02/25 08:00:09;;;;;;;11.10;2.63;;;5.20;64.50;;;;;;5026951;28;20963;-71
2023/02/25 08:02:35;;;;;;;17.85;3.60;;;5.20;63.40;;;;;;5009780;28;20392;-72
2023/02/25 08:05:01;;;;;;;22.23;3.57;;;5.20;65.10;;;;;;5014612;28;20519;-74
2023/02/25 08:07:28;;;;;;;21.00;2.70;;;5.20;64.70;;;;;;5020596;28;20409;-73
2023/02/25 08:09:54;;;;;;;23.08;4.10;;;5.20;64.40;;;;;;5030772;28;20387;-74
2023/02/25 08:12:19;;;;;;;26.97;3.80;;;5.30;64.80;;;;;;5033089;28;20556;-73
2023/02/25 08:14:45;;;;;;;19.53;4.20;;;5.30;63.30;;;;;;5023822;28;20432;-73
2023/02/25 08:17:12;;;;;;;19.90;4.33;;;5.40;63.30;;;;;;5018380;28;20757;-72
2023/02/25 08:19:38;;;;;;;24.30;4.80;;;5.40;63.00;;;;;;5032151;28;20470;-72
2023/02/25 08:22:04;;;;;;;15.68;3.30;;;5.50;64.10;;;;;;5027502;28;20399;-73
2023/02/25 08:24:30;;;;;;;24.25;4.50;;;5.50;62.90;;;;;;5037286;28;20432;-74
2023/02/25 08:26:56;;;;;;;21.65;3.40;;;5.50;63.90;;;;;;5033666;28;20387;-74
2023/02/25 08:29:22;;;;;;;26.77;3.60;;;5.60;62.30;;;;;;5033711;28;20398;-74
2023/02/25 08:31:52;;;;;;;28.00;3.47;;;5.40;68.10;;;;;;5033976;28;20464;-73
2023/02/25 08:34:17;;;;;;;19.23;3.42;;;5.20;76.60;;;;;;5030409;28;20401;-72
2023/02/25 08:36:43;;;;;;;28.37;3.40;;;4.90;85.10;;;;;;5021331;28;20416;-72
2023/02/25 08:39:10;;;;;;;23.25;4.32;;;4.70;88.60;;;;;;5016319;28;20396;-73
2023/02/25 08:41:36;;;;;;;15.23;3.33;;;4.70;91.90;;;;;;5022176;28;20507;-73
2023/02/25 08:44:02;;;;;;;21.17;4.57;;;4.60;87.20;;;;;;5022794;28;20404;-71
2023/02/25 08:46:30;;;;;;;28.42;4.85;;;4.60;90.20;;;;;;5035141;28;20391;-72
2023/02/25 08:48:56;;;;;;;27.20;5.60;;;4.70;94.30;;;;;;5045156;28;20442;-73
2023/02/25 08:51:32;;;;;;;22.65;5.07;;;4.80;93.30;;;;;;5029847;28;20799;-72
2023/02/25 08:54:05;;;;;;;29.10;5.50;;;4.80;90.60;;;;;;5045011;28;20397;-72
2023/02/25 08:56:31;;;;;;;20.60;4.90;;;5.00;87.80;;;;;;5040657;28;20606;-73
2023/02/25 08:58:57;;;;;;;20.98;4.55;;;5.10;86.70;;;;;;5048710;28;20379;-72
2023/02/25 09:01:23;;;;;;;27.42;6.50;;;5.10;80.60;;;;;;5029935;28;20396;-71
2023/02/25 09:03:51;;;;;;;17.88;5.10;;;5.20;82.80;;;;;;5003895;28;20397;-74
2023/02/25 09:06:23;;;;;;;15.70;5.30;;;5.30;80.10;;;;;;5034735;28;20440;-75
2023/02/25 09:08:50;;;;;;;24.85;5.60;;;5.40;78.10;;;;;;5034626;28;20470;-73
2023/02/25 09:11:16;;;;;;;25.33;4.90;;;5.70;76.20;;;;;;5017682;28;20414;-74
2023/02/25 09:13:41;;;;;;;25.77;6.07;;;5.80;72.40;;;;;;5035997;28;20371;-73
2023/02/25 09:16:07;;;;;;;28.10;5.50;;;5.90;73.00;;;;;;5021473;28;20400;-74
2023/02/25 09:18:33;;;;;;;19.65;5.78;;;5.90;67.30;;;;;;5023994;28;20417;-71
2023/02/25 09:20:58;;;;;;;23.60;5.30;;;5.80;65.10;;;;;;5039334;28;20387;-72
2023/02/25 09:23:24;;;;;;;23.65;6.57;;;5.80;67.10;;;;;;5039197;28;20387;-73
2023/02/25 09:25:50;;;;;;;19.63;5.30;;;6.10;68.00;;;;;;5037871;28;20402;-73
2023/02/25 09:28:15;;;;;;;26.92;6.15;;;6.30;60.40;;;;;;5035795;28;20434;-71
2023/02/25 09:30:45;;;;;;;19.83;6.00;;;6.40;61.40;;;;;;5037927;28;20413;-72
2023/02/25 09:33:11;;;;;;;24.20;6.53;;;6.30;63.70;;;;;;5020456;28;20460;-72
2023/02/25 09:35:37;;;;;;;21.52;6.75;;;6.40;64.60;;;;;;5031806;28;20484;-72
2023/02/25 09:38:02;;;;;;;18.53;6.77;;;6.10;61.10;;;;;;5019636;28;20417;-73
2023/02/25 09:40:28;;;;;;;23.70;5.40;;;6.10;64.70;;;;;;5024261;28;20408;-73
2023/02/25 09:43:05;;;;;;;19.50;6.60;;;6.00;64.50;;;;;;5020629;28;20388;-73
2023/02/25 09:45:33;;;;;;;21.30;6.10;;;6.00;65.90;;;;;;5015612;28;20472;-72
2023/02/25 09:48:27;;;;;;;23.08;6.80;;;6.10;61.20;;;;;;5034511;28;20403;-72
2023/02/25 09:51:25;;;;;;;16.65;5.90;;;6.20;61.00;;;;;;5027031;28;20975;-73
2023/02/25 09:54:02;;;;;;;14.88;4.65;;;6.50;57.00;;;;;;5025343;28;20701;-74
2023/02/25 09:56:29;;;;;;;13.98;4.30;;;6.50;52.00;;;;;;5033514;28;20383;-73
2023/02/25 09:58:58;;;;;;;13.43;5.10;;;6.50;52.80;;;;;;5032917;28;20984;-73
2023/02/25 10:01:44;;;;;;;13.23;4.13;;;6.60;54.60;;;;;;5032832;28;20395;-75
2023/02/25 10:04:15;;;;;;;12.43;4.10;;;6.60;54.60;;;;;;5032376;28;20395;-73
2023/02/25 10:06:46;;;;;;;13.50;4.15;;;6.20;58.90;;;;;;5020488;28;20896;-73
2023/02/25 10:09:24;;;;;;;7.75;3.03;;;6.00;61.80;;;;;;5013229;28;20388;-75
2023/02/25 10:12:25;;;;;;;14.57;5.00;;;5.80;64.80;;;;;;5013142;28;20419;-73
2023/02/25 10:15:17;;;;;;;10.43;4.20;;;5.70;71.80;;;;;;5009329;28;20397;-73
2023/02/25 10:18:01;;;;;;;10.60;3.35;;;5.60;72.20;;;;;;5031295;28;20412;-75
2023/02/25 10:20:48;;;;;;;9.30;4.78;;;5.20;73.20;;;;;;5013260;28;20866;-72
2023/02/25 10:23:14;;;;;;;14.03;5.60;;;5.00;86.30;;;;;;5013136;28;20472;-72
2023/02/25 10:25:47;;;;;;;14.37;6.80;;;4.70;90.60;;;;;;5013381;28;20866;-72
2023/02/25 10:28:16;;;;;;;11.10;4.20;;;4.50;99.90;;;;;;5012854;28;20400;-74
2023/02/25 10:30:51;;;;;;;6.05;1.95;;;4.30;99.90;;;;;;5018462;28;20403;-74
2023/02/25 10:33:23;;;;;;;4.55;1.70;;;3.90;97.70;;;;;;5014435;28;20481;-73
2023/02/25 10:36:13;;;;;;;4.63;1.70;;;3.80;99.90;;;;;;5034169;28;20748;-75
2023/02/25 10:38:44;;;;;;;5.13;1.90;;;3.70;98.10;;;;;;5026220;28;20395;-76
2023/02/25 10:41:10;;;;;;;5.72;1.90;;;3.60;99.90;;;;;;5034077;28;20879;-74
2023/02/25 10:43:36;;;;;;;5.05;1.85;;;3.60;99.90;;;;;;5033006;28;20398;-73
2023/02/25 10:46:09;;;;;;;7.05;1.80;;;3.60;99.90;;;;;;5032067;28;20875;-74
2023/02/25 10:48:35;;;;;;;7.70;2.33;;;3.80;99.90;;;;;;5032841;28;20489;-72
2023/02/25 10:51:04;;;;;;;4.60;2.33;;;4.00;99.90;;;;;;5024889;28;20459;-72
2023/02/25 10:53:31;;;;;;;5.13;1.90;;;4.20;99.90;;;;;;5016386;28;20488;-74
2023/02/25 10:55:59;;;;;;;6.53;2.60;;;4.50;99.90;;;;;;5015224;28;20385;-74
2023/02/25 10:58:33;;;;;;;7.20;1.60;;;4.60;99.90;;;;;;5013944;28;20469;-74
2023/02/25 11:00:59;;;;;;;5.60;2.00;;;4.60;92.30;;;;;;5013304;28;20385;-73
2023/02/25 11:03:28;;;;;;;2.10;1.60;;;4.60;92.20;;;;;;5004468;28;20802;-73
2023/02/25 11:06:09;;;;;;;4.03;2.00;;;4.60;91.00;;;;;;5013007;28;20385;-74
2023/02/25 11:08:35;;;;;;;3.70;1.45;;;4.60;89.30;;;;;;4999601;28;20439;-74
2023/02/25 11:11:03;;;;;;;7.20;1.70;;;4.60;86.00;;;;;;5020961;28;20408;-73
2023/02/25 11:13:33;;;;;;;4.80;1.90;;;4.60;85.30;;;;;;5022278;28;20427;-73
2023/02/25 11:16:04;;;;;;;4.60;2.17;;;4.70;84.50;;;;;;5021466;28;20388;-72
2023/02/25 11:18:31;;;;;;;6.38;2.25;;;4.80;88.10;;;;;;5003976;28;21000;-72
2023/02/25 11:21:11;;;;;;;4.50;2.10;;;4.90;82.20;;;;;;5002876;28;20400;-72
2023/02/25 11:23:42;;;;;;;6.47;2.00;;;5.10;83.70;;;;;;5014166;28;20401;-72
2023/02/25 11:26:24;;;;;;;4.40;2.40;;;5.30;81.90;;;;;;5026504;28;20407;-73
2023/02/25 11:28:50;;;;;;;4.55;2.00;;;5.50;81.50;;;;;;4994590;28;20415;-73
2023/02/25 11:31:27;;;;;;;12.13;2.60;;;5.70;76.80;;;;;;5010976;28;20911;-72
2023/02/25 11:34:05;;;;;;;7.60;2.78;;;6.00;76.40;;;;;;5007621;28;20389;-75
2023/02/25 11:36:38;;;;;;;6.72;2.47;;;6.50;67.60;;;;;;5010843;28;20397;-75
2023/02/25 11:39:05;;;;;;;6.97;2.10;;;6.80;63.30;;;;;;5012096;28;20403;-76
2023/02/25 11:41:31;;;;;;;6.57;2.10;;;6.60;53.10;;;;;;5011275;28;20405;-76
2023/02/25 11:43:57;;;;;;;6.55;2.30;;;6.60;54.60;;;;;;5010769;28;20900;-76
2023/02/25 11:46:29;;;;;;;6.82;2.20;;;6.70;54.70;;;;;;5020336;28;20390;-75
2023/02/25 11:49:00;;;;;;;4.18;1.60;;;6.60;48.80;;;;;;5021928;28;20432;-75
2023/02/25 11:51:50;;;;;;;7.50;1.50;;;6.50;47.70;;;;;;5016220;28;20915;-76
2023/02/25 11:54:35;;;;;;;6.95;1.90;;;6.60;41.00;;;;;;5030274;28;20483;-77
2023/02/25 11:57:19;;;;;;;6.43;1.80;;;7.00;38.50;;;;;;4997340;28;20476;-76
2023/02/25 11:59:59;;;;;;;7.10;1.80;;;7.20;38.50;;;;;;5023238;28;20758;-76
2023/02/25 12:02:34;;;;;;;10.05;2.20;;;7.10;38.10;;;;;;5010388;28;20400;-76
2023/02/25 12:05:43;;;;;;;7.47;2.10;;;6.80;38.10;;;;;;5011163;28;20420;-76
2023/02/25 12:08:31;;;;;;;10.23;2.13;;;6.60;39.90;;;;;;5014995;28;20393;-76
2023/02/25 12:11:35;;;;;;;5.50;1.70;;;6.80;37.50;;;;;;5015696;28;20420;-75
2023/02/25 12:14:28;;;;;;;3.20;1.70;;;7.00;34.00;;;;;;4995619;28;20450;-76
2023/02/25 12:17:38;;;;;;;6.28;1.70;;;7.10;30.80;;;;;;5010841;28;20393;-75
2023/02/25 12:20:37;;;;;;;5.93;1.85;;;7.20;30.00;;;;;;4997075;28;21019;-75
2023/02/25 12:23:24;;;;;;;6.95;1.70;;;7.60;30.80;;;;;;4990622;28;20396;-76
2023/02/25 12:26:27;;;;;;;5.68;1.70;;;8.00;27.60;;;;;;5037300;28;20427;-75
2023/02/25 12:29:41;;;;;;;7.57;1.90;;;7.80;25.20;;;;;;5013957;28;20477;-76
2023/02/25 12:32:09;;;;;;;10.48;1.85;;;7.50;26.40;;;;;;5012339;28;20420;-75
2023/02/25 12:34:53;;;;;;;6.45;1.60;;;7.30;26.10;;;;;;5014637;28;20385;-76
2023/02/25 12:37:43;;;;;;;3.97;1.40;;;6.80;25.90;;;;;;5012101;28;20389;-76
2023/02/25 12:40:47;;;;;;;5.75;1.73;;;6.30;27.90;;;;;;5019697;28;20875;-75
2023/02/25 12:43:28;;;;;;;14.05;2.80;;;6.10;30.50;;;;;;5011694;28;20852;-74
2023/02/25 12:46:14;;;;;;;10.88;1.95;;;6.10;30.20;;;;;;4995011;28;20421;-76
2023/02/25 12:49:32;;;;;;;12.20;1.92;;;6.10;29.60;;;;;;4987969;28;20402;-76
2023/02/25 12:52:15;;;;;;;14.73;2.75;;;6.10;29.00;;;;;;5004444;28;20424;-76
2023/02/25 12:54:50;;;;;;;11.10;2.38;;;6.20;29.40;;;;;;5019895;28;20879;-75
2023/02/25 12:57:50;;;;;;;9.23;2.50;;;6.40;27.90;;;;;;5015876;28;20396;-73
2023/02/25 13:00:34;;;;;;;10.00;2.00;;;6.60;27.70;;;;;;5012313;28;20397;-72
2023/02/25 13:03:19;;;;;;;6.10;2.13;;;6.80;26.20;;;;;;5024563;28;20505;-72
2023/02/25 13:05:48;;;;;;;11.40;2.22;;;7.00;23.80;;;;;;4993614;28;20772;-73
2023/02/25 13:08:48;;;;;;;10.65;2.17;;;7.10;22.60;;;;;;4993274;28;20436;-73